Time;durP1;ratioP1;P1;durP2;ratioP2;P2;SDS_P1;SDS_P2;PMS_P1;PMS_P2;Temp;Humidity;BMP_temperature;BMP_pressure;BME280_temperature;BME280_humidity;BME280_pressure;Samples;Min_cycle;Max_cycle;Signal;HPM_P1;HPM_P2
2023/03/30 00:01:19;;;;;;;5.90;2.90;;;;;;;0.83;58.98;100654.67;108125;1254;60447;-77
2023/03/30 00:03:48;;;;;;;5.80;3.10;;;;;;;0.80;58.92;100653.96;108155;1254;60469;-80
2023/03/30 00:06:21;;;;;;;6.50;3.40;;;;;;;0.77;58.86;100658.92;108094;1257;74524;-78
2023/03/30 00:08:57;;;;;;;4.60;2.70;;;;;;;0.74;59.03;100657.59;108130;1256;71829;-80
2023/03/30 00:11:32;;;;;;;5.40;2.70;;;;;;;0.70;59.19;100652.73;108114;1257;73264;-79
2023/03/30 00:14:01;;;;;;;4.50;2.80;;;;;;;0.68;59.25;100656.48;108083;1257;60377;-80
2023/03/30 00:16:30;;;;;;;6.70;3.20;;;;;;;0.68;59.37;100652.52;108139;1256;61250;-79
2023/03/30 00:18:59;;;;;;;5.90;3.10;;;;;;;0.66;59.43;100649.45;108103;1257;73958;-80
2023/03/30 00:21:32;;;;;;;5.70;3.00;;;;;;;0.65;59.60;100647.61;107999;1256;71834;-80
2023/03/30 00:24:00;;;;;;;6.00;3.10;;;;;;;0.63;59.49;100649.94;108074;1255;73897;-79
2023/03/30 00:26:29;;;;;;;6.00;3.30;;;;;;;0.61;59.64;100644.50;108045;1255;60395;-78
2023/03/30 00:28:57;;;;;;;7.00;3.70;;;;;;;0.60;59.91;100645.50;108106;1255;62442;-78
2023/03/30 00:31:26;;;;;;;5.90;3.30;;;;;;;0.59;59.78;100644.91;108055;1259;74406;-78
2023/03/30 00:33:55;;;;;;;6.60;3.20;;;;;;;0.58;59.95;100643.91;108153;1254;73774;-78
2023/03/30 00:36:24;;;;;;;6.70;3.20;;;;;;;0.57;59.74;100645.64;108110;1254;72149;-78
2023/03/30 00:38:55;;;;;;;6.60;3.50;;;;;;;0.56;59.82;100647.82;108196;1254;60316;-77
2023/03/30 00:41:23;;;;;;;5.20;3.10;;;;;;;0.53;60.07;100642.48;108347;1254;60421;-79
2023/03/30 00:43:59;;;;;;;7.90;3.70;;;;;;;0.53;60.03;100641.27;108350;1256;73854;-77
2023/03/30 00:46:29;;;;;;;6.10;3.40;;;;;;;0.51;60.30;100648.38;108123;1256;71197;-78
2023/03/30 00:49:07;;;;;;;4.90;3.10;;;;;;;0.50;60.22;100647.23;108165;1255;72784;-79
2023/03/30 00:51:43;;;;;;;5.40;3.00;;;;;;;0.50;60.21;100650.95;108077;1256;60460;-78
2023/03/30 00:54:16;;;;;;;4.90;3.10;;;;;;;0.49;60.25;100651.74;108030;1254;60084;-78
2023/03/30 00:56:44;;;;;;;8.50;3.60;;;;;;;0.48;60.20;100653.28;108156;1257;72116;-79
2023/03/30 00:59:18;;;;;;;6.00;3.40;;;;;;;0.46;60.36;100656.58;108125;1254;71748;-78
2023/03/30 01:01:48;;;;;;;7.50;3.40;;;;;;;0.45;60.37;100662.55;108106;1254;73438;-78
2023/03/30 01:04:19;;;;;;;5.40;3.10;;;;;;;0.43;60.28;100664.16;108147;1254;60408;-78
2023/03/30 01:06:48;;;;;;;5.70;3.50;;;;;;;0.42;60.13;100662.04;108033;1254;60776;-78
2023/03/30 01:09:16;;;;;;;6.20;3.20;;;;;;;0.41;60.29;100663.77;108164;1254;75114;-77
2023/03/30 01:11:45;;;;;;;5.90;3.40;;;;;;;0.40;60.39;100666.11;107996;1254;72743;-77
2023/03/30 01:14:14;;;;;;;8.10;3.50;;;;;;;0.40;60.37;100668.80;108131;1254;70450;-77
2023/03/30 01:16:49;;;;;;;6.10;3.50;;;;;;;0.40;60.37;100670.52;108111;1254;60287;-77
2023/03/30 01:19:42;;;;;;;6.10;3.40;;;;;;;0.39;60.45;100672.00;108154;1257;60316;-77
2023/03/30 01:22:35;;;;;;;7.30;3.50;;;;;;;0.37;60.37;100677.32;108135;1254;74854;-77
2023/03/30 01:25:39;;;;;;;4.60;3.10;;;;;;;0.36;60.53;100679.36;108140;1254;71851;-77
2023/03/30 01:28:56;;;;;;;6.10;3.40;;;;;;;0.37;60.46;100682.77;107929;1254;72009;-78
2023/03/30 01:31:33;;;;;;;7.80;3.20;;;;;;;0.37;60.40;100683.27;107954;1254;60815;-78
2023/03/30 01:34:38;;;;;;;5.40;3.40;;;;;;;0.37;60.22;100685.52;108158;1254;60638;-78
2023/03/30 01:37:25;;;;;;;6.40;3.60;;;;;;;0.37;59.90;100694.36;107657;1260;74839;-78
2023/03/30 01:40:12;;;;;;;7.00;3.90;;;;;;;0.37;60.26;100695.75;108129;1254;74542;-78
2023/03/30 01:43:00;;;;;;;5.80;3.40;;;;;;;0.36;60.45;100698.84;108142;1254;72142;-79
2023/03/30 01:45:54;;;;;;;6.60;3.20;;;;;;;0.33;60.49;100699.95;108135;1254;60446;-79
2023/03/30 01:48:51;;;;;;;6.70;3.50;;;;;;;0.30;60.59;100704.36;108135;1256;59510;-79
2023/03/30 01:51:27;;;;;;;6.50;3.60;;;;;;;0.28;60.69;100704.86;108059;1255;73088;-79
2023/03/30 01:53:59;;;;;;;7.00;3.70;;;;;;;0.27;60.64;100698.27;108105;1254;72603;-79
2023/03/30 01:56:44;;;;;;;7.40;3.90;;;;;;;0.25;60.62;100702.97;108190;1254;72905;-78
2023/03/30 01:59:12;;;;;;;7.40;3.60;;;;;;;0.23;60.66;100701.29;108210;1259;60352;-80
2023/03/30 02:01:48;;;;;;;7.20;4.60;;;;;;;0.22;60.73;100708.16;108236;1254;61132;-80
2023/03/30 02:04:19;;;;;;;6.50;3.60;;;;;;;0.22;60.88;100711.05;108214;1254;73574;-79
2023/03/30 02:06:55;;;;;;;6.30;3.80;;;;;;;0.20;60.81;100717.91;108078;1256;73981;-80
2023/03/30 02:09:25;;;;;;;7.60;3.70;;;;;;;0.20;60.88;100716.02;108022;1255;72229;-79
2023/03/30 02:11:54;;;;;;;6.90;3.60;;;;;;;0.18;60.95;100723.88;108016;1257;60383;-79
2023/03/30 02:14:26;;;;;;;6.70;3.40;;;;;;;0.15;60.85;100721.45;108163;1256;60834;-78
2023/03/30 02:17:10;;;;;;;6.70;3.30;;;;;;;0.13;60.77;100723.69;108134;1257;74770;-79
2023/03/30 02:19:40;;;;;;;5.30;2.90;;;;;;;0.10;60.93;100724.51;108086;1255;71040;-77
2023/03/30 02:22:17;;;;;;;7.00;3.70;;;;;;;0.09;61.00;100727.27;108116;1254;72618;-77
2023/03/30 02:24:48;;;;;;;6.40;3.40;;;;;;;0.08;61.06;100726.27;108190;1254;60453;-78
2023/03/30 02:27:17;;;;;;;7.20;3.70;;;;;;;0.07;61.15;100732.11;108157;1254;60295;-78
2023/03/30 02:29:49;;;;;;;6.60;3.80;;;;;;;0.07;61.08;100732.88;108179;1254;73051;-78
2023/03/30 02:32:28;;;;;;;7.40;3.60;;;;;;;0.06;61.06;100731.52;108124;1258;70817;-78
2023/03/30 02:35:17;;;;;;;6.30;3.20;;;;;;;0.04;61.14;100732.96;108115;1254;73937;-78
2023/03/30 02:38:10;;;;;;;7.20;3.90;;;;;;;0.05;61.22;100732.61;108020;1254;61194;-78
2023/03/30 02:40:51;;;;;;;7.50;3.50;;;;;;;0.05;61.33;100730.66;108085;1257;60790;-78
2023/03/30 02:43:29;;;;;;;5.70;3.60;;;;;;;0.06;61.25;100734.64;108086;1256;74209;-78
2023/03/30 02:46:22;;;;;;;7.50;3.20;;;;;;;0.08;61.11;100738.54;108100;1257;71474;-78
2023/03/30 02:49:03;;;;;;;6.30;3.00;;;;;;;0.07;61.23;100742.42;108018;1257;73377;-80
2023/03/30 02:51:45;;;;;;;7.40;3.60;;;;;;;0.05;61.18;100747.56;107975;1256;61793;-79
2023/03/30 02:54:22;;;;;;;5.60;3.10;;;;;;;0.03;60.92;100750.31;108115;1255;60319;-79
2023/03/30 02:57:22;;;;;;;7.60;3.50;;;;;;;0.00;61.09;100755.86;107825;1254;72275;-79
2023/03/30 02:59:57;;;;;;;9.40;4.90;;;;;;;-0.03;61.07;100762.02;108237;1259;73747;-79
2023/03/30 03:02:29;;;;;;;8.90;5.00;;;;;;;-0.05;61.01;100762.65;108138;1254;72201;-78
2023/03/30 03:05:07;;;;;;;9.40;4.60;;;;;;;-0.06;61.13;100768.63;107913;1254;60524;-78
2023/03/30 03:07:51;;;;;;;8.50;4.30;;;;;;;-0.06;61.11;100766.04;107867;1255;60329;-79
2023/03/30 03:10:19;;;;;;;7.10;4.20;;;;;;;-0.08;61.01;100769.44;108169;1257;74145;-79
2023/03/30 03:12:55;;;;;;;7.10;3.60;;;;;;;-0.10;61.14;100771.48;108066;1255;72662;-79
2023/03/30 03:15:24;;;;;;;6.90;3.50;;;;;;;-0.14;61.21;100773.44;108026;1256;72181;-79
2023/03/30 03:18:06;;;;;;;8.80;3.90;;;;;;;-0.16;61.35;100773.71;108045;1256;61359;-80
2023/03/30 03:20:36;;;;;;;9.60;4.40;;;;;;;-0.18;61.33;100780.54;108068;1255;61384;-79
2023/03/30 03:23:05;;;;;;;8.90;4.20;;;;;;;-0.19;61.37;100782.27;108164;1254;74796;-80
2023/03/30 03:25:42;;;;;;;7.50;4.00;;;;;;;-0.21;61.58;100783.02;108204;1254;72473;-79
2023/03/30 03:28:14;;;;;;;9.40;4.10;;;;;;;-0.24;61.52;100785.63;108246;1254;72546;-79
2023/03/30 03:30:49;;;;;;;6.20;3.70;;;;;;;-0.26;61.54;100788.80;108176;1254;60332;-78
2023/03/30 03:33:19;;;;;;;6.90;4.10;;;;;;;-0.27;61.61;100791.10;108192;1254;60489;-80
2023/03/30 03:36:16;;;;;;;6.80;4.00;;;;;;;-0.30;61.73;100784.81;107783;1254;73969;-80
2023/03/30 03:38:53;;;;;;;6.80;3.80;;;;;;;-0.32;61.68;100792.14;108300;1254;71528;-80
2023/03/30 03:41:23;;;;;;;8.10;4.00;;;;;;;-0.32;61.66;100793.46;108174;1254;72934;-80
2023/03/30 03:43:51;;;;;;;7.20;4.00;;;;;;;-0.35;61.55;100794.27;108239;1254;60839;-80
2023/03/30 03:46:19;;;;;;;7.30;4.30;;;;;;;-0.38;61.77;100796.04;108428;1254;60286;-79
2023/03/30 03:48:48;;;;;;;8.20;4.30;;;;;;;-0.39;61.79;100792.52;108397;1256;72890;-81
2023/03/30 03:51:16;;;;;;;7.90;3.90;;;;;;;-0.39;61.77;100791.11;108401;1259;72627;-79
2023/03/30 03:53:48;;;;;;;6.10;3.30;;;;;;;-0.37;61.97;100795.38;108345;1254;72652;-77
2023/03/30 03:56:16;;;;;;;7.20;3.60;;;;;;;-0.36;62.05;100795.34;108346;1253;62267;-78
2023/03/30 03:58:52;;;;;;;7.00;3.40;;;;;;;-0.37;62.06;100799.89;108254;1254;60539;-78
2023/03/30 04:01:20;;;;;;;6.10;3.80;;;;;;;-0.36;62.08;100801.20;108214;1254;73105;-79
2023/03/30 04:03:50;;;;;;;7.20;4.10;;;;;;;-0.35;62.13;100799.76;108126;1256;72164;-79
2023/03/30 04:06:20;;;;;;;6.30;3.60;;;;;;;-0.36;61.93;100800.00;108106;1256;71840;-78
2023/03/30 04:08:51;;;;;;;7.70;3.90;;;;;;;-0.37;61.90;100796.41;108140;1256;61367;-79
2023/03/30 04:11:29;;;;;;;5.80;3.70;;;;;;;-0.37;61.90;100794.15;108204;1257;61196;-79
2023/03/30 04:14:35;;;;;;;7.00;3.60;;;;;;;-0.35;62.15;100798.80;108170;1259;72965;-79
2023/03/30 04:17:22;;;;;;;8.20;4.30;;;;;;;-0.32;62.06;100798.99;108477;1254;70332;-79
2023/03/30 04:20:11;;;;;;;7.70;4.00;;;;;;;-0.26;62.15;100805.70;108577;1254;71393;-80
2023/03/30 04:23:00;;;;;;;7.60;4.40;;;;;;;-0.20;61.97;100807.05;107953;1256;60626;-81
2023/03/30 04:26:03;;;;;;;9.70;4.20;;;;;;;-0.12;61.93;100806.27;108178;1256;60406;-80
2023/03/30 04:28:53;;;;;;;7.50;4.00;;;;;;;-0.06;61.88;100810.48;108063;1254;73159;-79
2023/03/30 04:31:41;;;;;;;6.90;4.10;;;;;;;0.01;61.84;100812.11;108064;1254;74074;-80
2023/03/30 04:34:25;;;;;;;8.00;4.00;;;;;;;0.08;61.68;100812.73;108070;1254;72605;-80
2023/03/30 04:37:22;;;;;;;8.10;4.00;;;;;;;0.13;61.27;100809.13;108049;1254;62539;-80
2023/03/30 04:40:17;;;;;;;8.40;3.90;;;;;;;0.21;61.11;100810.59;108152;1254;61296;-81
2023/03/30 04:43:02;;;;;;;9.40;4.70;;;;;;;0.30;60.68;100814.67;108608;1254;73888;-80
2023/03/30 04:46:00;;;;;;;9.00;4.50;;;;;;;0.38;60.37;100816.63;108336;1254;72652;-79
2023/03/30 04:48:56;;;;;;;7.00;4.20;;;;;;;0.46;59.90;100818.70;108831;1259;70194;-82
2023/03/30 04:51:47;;;;;;;8.00;4.00;;;;;;;0.52;59.48;100812.14;108836;1254;59452;-78
2023/03/30 04:55:02;;;;;;;7.60;3.70;;;;;;;0.63;59.21;100817.09;108331;1260;61302;-80
2023/03/30 04:57:31;;;;;;;8.20;4.40;;;;;;;0.72;59.17;100819.80;107756;1264;74232;-81
2023/03/30 05:00:26;;;;;;;7.20;4.00;;;;;;;0.82;58.54;100820.68;107832;1254;72599;-80
2023/03/30 05:03:26;;;;;;;6.90;4.60;;;;;;;0.89;58.09;100816.06;107991;1254;73873;-80
2023/03/30 05:06:05;;;;;;;8.40;3.90;;;;;;;0.94;57.90;100816.71;108053;1254;61634;-80
2023/03/30 05:09:03;;;;;;;6.00;3.60;;;;;;;1.02;57.76;100821.02;107509;1262;60325;-78
2023/03/30 05:11:59;;;;;;;8.50;4.40;;;;;;;1.09;57.71;100824.30;108054;1257;74043;-79
2023/03/30 05:14:47;;;;;;;7.20;4.10;;;;;;;1.16;57.34;100821.94;108021;1257;73588;-81
2023/03/30 05:17:33;;;;;;;6.60;3.70;;;;;;;1.24;57.19;100822.30;107952;1259;73089;-80
2023/03/30 05:20:17;;;;;;;7.90;4.40;;;;;;;1.30;56.80;100819.43;107959;1257;60337;-80
2023/03/30 05:23:10;;;;;;;8.30;4.30;;;;;;;1.39;56.90;100814.66;107993;1256;61532;-80
2023/03/30 05:26:10;;;;;;;5.50;3.30;;;;;;;1.48;56.19;100809.02;108074;1259;74257;-80
2023/03/30 05:28:46;;;;;;;7.20;3.80;;;;;;;1.54;55.80;100808.62;108107;1259;71879;-81
2023/03/30 05:31:21;;;;;;;7.40;4.20;;;;;;;1.61;55.44;100811.59;108035;1257;71827;-80
2023/03/30 05:34:23;;;;;;;6.80;3.50;;;;;;;1.69;54.83;100817.64;108018;1255;60419;-80
2023/03/30 05:37:15;;;;;;;6.70;3.70;;;;;;;1.76;54.63;100810.88;107797;1257;60792;-80
2023/03/30 05:39:55;;;;;;;9.80;4.20;;;;;;;1.83;54.52;100811.13;108041;1257;72972;-79
2023/03/30 05:42:37;;;;;;;8.30;4.30;;;;;;;1.92;54.27;100805.42;108010;1257;72866;-79
2023/03/30 05:45:26;;;;;;;8.60;4.20;;;;;;;2.01;53.97;100801.77;107922;1259;72516;-79
2023/03/30 05:48:11;;;;;;;8.10;4.30;;;;;;;2.08;53.58;100802.60;108042;1257;60450;-79
2023/03/30 05:50:46;;;;;;;6.80;4.30;;;;;;;2.15;53.63;100804.05;108007;1257;61401;-81
2023/03/30 05:53:38;;;;;;;7.50;4.40;;;;;;;2.23;53.19;100799.92;108069;1254;74096;-80
2023/03/30 05:56:37;;;;;;;6.60;4.10;;;;;;;2.26;52.69;100807.63;107991;1257;72545;-79
2023/03/30 05:59:20;;;;;;;7.00;3.30;;;;;;;2.30;52.07;100814.06;108002;1256;71628;-80
2023/03/30 06:01:59;;;;;;;6.10;3.70;;;;;;;2.37;51.68;100809.52;108000;1257;60241;-79
2023/03/30 06:04:30;;;;;;;10.80;3.80;;;;;;;2.47;51.42;100813.19;107867;1256;61396;-79
2023/03/30 06:07:00;;;;;;;6.10;3.20;;;;;;;2.56;50.95;100815.91;107979;1256;74725;-78
2023/03/30 06:09:29;;;;;;;7.30;3.60;;;;;;;2.61;50.09;100814.42;108024;1257;72486;-79
2023/03/30 06:11:59;;;;;;;6.10;3.10;;;;;;;2.65;49.82;100808.31;108018;1257;72263;-78
2023/03/30 06:14:28;;;;;;;8.50;3.10;;;;;;;2.71;49.85;100809.25;108035;1257;60284;-81
2023/03/30 06:17:35;;;;;;;5.80;3.60;;;;;;;2.80;49.86;100808.80;107470;1263;60444;-81
2023/03/30 06:20:09;;;;;;;6.20;3.40;;;;;;;2.88;49.74;100815.35;107888;1254;74374;-81
2023/03/30 06:22:42;;;;;;;7.90;3.30;;;;;;;2.95;49.19;100813.70;108071;1254;72459;-78
2023/03/30 06:25:19;;;;;;;7.30;3.50;;;;;;;3.00;49.17;100812.55;108144;1256;72894;-81
2023/03/30 06:27:48;;;;;;;6.50;3.40;;;;;;;3.06;49.18;100816.92;108006;1257;60453;-80
2023/03/30 06:30:17;;;;;;;5.50;3.10;;;;;;;3.10;48.54;100820.34;108113;1259;61768;-80
2023/03/30 06:32:49;;;;;;;6.60;3.30;;;;;;;3.14;48.52;100814.70;108048;1257;74091;-81
2023/03/30 06:35:49;;;;;;;4.80;2.70;;;;;;;3.21;48.21;100818.16;108038;1257;73056;-79
2023/03/30 06:38:20;;;;;;;5.80;2.80;;;;;;;3.26;47.91;100822.59;108089;1257;73753;-77
2023/03/30 06:40:50;;;;;;;7.20;2.90;;;;;;;3.28;47.21;100818.40;108146;1257;60332;-79
2023/03/30 06:43:23;;;;;;;5.30;2.50;;;;;;;3.31;47.15;100814.95;108183;1256;59867;-80
2023/03/30 06:46:13;;;;;;;4.10;2.40;;;;;;;3.36;47.15;100813.73;108097;1257;74153;-79
2023/03/30 06:48:48;;;;;;;5.40;2.50;;;;;;;3.41;46.88;100814.39;107999;1257;73114;-80
2023/03/30 06:51:35;;;;;;;6.40;2.30;;;;;;;3.47;46.78;100815.13;108017;1259;72691;-80
2023/03/30 06:54:05;;;;;;;4.60;1.90;;;;;;;3.49;45.81;100815.89;107993;1255;60379;-80
2023/03/30 06:56:33;;;;;;;5.70;2.30;;;;;;;3.50;45.96;100808.08;108019;1254;60542;-79
2023/03/30 06:59:10;;;;;;;3.60;2.10;;;;;;;3.58;46.19;100808.73;108088;1259;74176;-77
2023/03/30 07:01:58;;;;;;;4.80;1.90;;;;;;;3.64;45.85;100808.00;108201;1259;73065;-79
2023/03/30 07:05:05;;;;;;;4.30;2.10;;;;;;;3.70;45.64;100805.15;108254;1254;72707;-79
2023/03/30 07:07:58;;;;;;;5.30;2.60;;;;;;;3.76;45.90;100795.66;108190;1259;59988;-80
2023/03/30 07:10:27;;;;;;;5.10;2.40;;;;;;;3.83;46.17;100804.16;107921;1258;61765;-80
2023/03/30 07:12:57;;;;;;;3.70;2.10;;;;;;;3.92;45.88;100802.91;108076;1260;74752;-80
2023/03/30 07:15:26;;;;;;;5.20;2.50;;;;;;;4.00;45.57;100808.14;108152;1259;73190;-80
2023/03/30 07:17:55;;;;;;;4.70;2.30;;;;;;;4.05;44.63;100804.14;108114;1255;71470;-79
2023/03/30 07:20:24;;;;;;;5.20;2.30;;;;;;;4.07;44.71;100803.40;108029;1254;60364;-79
2023/03/30 07:23:13;;;;;;;3.90;2.10;;;;;;;4.10;44.63;100797.18;107991;1258;60406;-80
2023/03/30 07:25:45;;;;;;;4.80;2.50;;;;;;;4.14;44.51;100793.70;108049;1259;73130;-80
2023/03/30 07:28:18;;;;;;;5.20;2.20;;;;;;;4.18;44.27;100791.09;104131;1259;5291453;-80
2023/03/30 07:30:47;;;;;;;5.70;2.60;;;;;;;4.22;44.55;100795.05;107979;1256;60565;-79
2023/03/30 07:33:18;;;;;;;3.80;2.00;;;;;;;4.27;44.66;100786.38;107946;1260;60665;-81
2023/03/30 07:35:48;;;;;;;5.20;2.80;;;;;;;4.32;44.90;100788.15;108034;1258;73123;-82
2023/03/30 07:38:24;;;;;;;3.70;1.70;;;;;;;4.36;43.65;100786.34;107986;1257;71886;-82
2023/03/30 07:40:54;;;;;;;4.10;2.30;;;;;;;4.39;43.55;100786.66;108060;1256;72729;-81
2023/03/30 07:43:23;;;;;;;5.30;2.30;;;;;;;4.42;43.61;100784.36;108106;1256;60839;-79
2023/03/30 07:45:56;;;;;;;4.20;2.20;;;;;;;4.45;43.32;100786.95;107983;1257;60335;-81
2023/03/30 07:48:35;;;;;;;5.10;2.20;;;;;;;4.46;42.90;100793.05;108019;1255;75112;-80
2023/03/30 07:51:09;;;;;;;5.30;2.20;;;;;;;4.47;42.95;100777.05;107937;1260;72676;-80
2023/03/30 07:53:44;;;;;;;4.80;2.50;;;;;;;4.48;42.94;100781.54;107890;1257;73651;-80
2023/03/30 07:56:19;;;;;;;6.10;2.50;;;;;;;4.50;43.07;100773.13;107921;1259;60415;-80
2023/03/30 07:58:50;;;;;;;4.70;2.50;;;;;;;4.50;42.78;100769.59;107973;1256;61366;-79
2023/03/30 08:01:20;;;;;;;6.20;2.70;;;;;;;4.51;43.16;100765.23;107948;1257;74982;-79
2023/03/30 08:04:17;;;;;;;6.50;2.80;;;;;;;4.59;43.58;100762.70;107902;1254;73064;-80
2023/03/30 08:06:48;;;;;;;5.90;3.10;;;;;;;4.65;43.49;100762.34;108003;1254;72541;-77
2023/03/30 08:09:18;;;;;;;4.00;1.80;;;;;;;4.72;43.35;100760.23;108027;1254;60444;-78
2023/03/30 08:11:46;;;;;;;5.50;2.70;;;;;;;4.78;42.95;100756.94;108005;1259;60337;-81
2023/03/30 08:14:17;;;;;;;7.00;2.40;;;;;;;4.78;42.52;100754.23;108034;1254;75593;-80
2023/03/30 08:16:46;;;;;;;7.50;3.00;;;;;;;4.76;42.87;100745.67;108069;1254;72539;-79
2023/03/30 08:19:15;;;;;;;3.60;2.20;;;;;;;4.82;42.90;100748.20;108108;1254;71686;-79
2023/03/30 08:21:44;;;;;;;6.00;2.20;;;;;;;4.86;42.26;100745.35;108055;1255;60809;-79
2023/03/30 08:24:12;;;;;;;3.90;2.30;;;;;;;4.89;42.24;100735.73;108080;1254;60769;-80
2023/03/30 08:26:41;;;;;;;4.30;2.40;;;;;;;4.95;42.30;100726.15;108066;1254;71663;-79
2023/03/30 08:29:11;;;;;;;6.10;3.00;;;;;;;5.04;42.55;100729.48;108089;1255;72133;-79
2023/03/30 08:31:40;;;;;;;4.70;2.40;;;;;;;5.13;41.99;100727.84;108048;1255;72585;-79
2023/03/30 08:34:08;;;;;;;4.00;2.40;;;;;;;5.19;41.92;100724.86;108080;1254;60451;-79
2023/03/30 08:36:37;;;;;;;4.90;2.60;;;;;;;5.23;42.10;100720.48;108439;1254;60395;-78
2023/03/30 08:39:09;;;;;;;4.40;2.20;;;;;;;5.27;41.43;100725.69;108254;1255;71767;-81
2023/03/30 08:42:05;;;;;;;4.70;2.50;;;;;;;5.30;41.01;100721.44;108154;1259;73912;-79
2023/03/30 08:44:38;;;;;;;7.20;2.70;;;;;;;5.31;41.09;100725.03;108011;1254;71870;-80
2023/03/30 08:47:30;;;;;;;4.10;2.20;;;;;;;5.32;40.72;100719.80;108032;1254;60300;-79
2023/03/30 08:50:15;;;;;;;5.50;2.30;;;;;;;5.38;41.49;100720.33;108011;1259;60166;-79
2023/03/30 08:52:44;;;;;;;4.90;2.40;;;;;;;5.51;41.24;100725.83;108004;1257;75413;-80
2023/03/30 08:55:20;;;;;;;5.50;2.50;;;;;;;5.51;40.69;100724.41;108103;1257;73985;-80
2023/03/30 08:58:17;;;;;;;4.90;2.40;;;;;;;5.59;41.29;100720.98;108024;1259;72435;-80
2023/03/30 09:01:10;;;;;;;5.80;2.30;;;;;;;5.74;40.68;100712.09;108073;1257;60762;-80
2023/03/30 09:03:54;;;;;;;3.90;2.10;;;;;;;5.85;40.18;100713.64;108051;1255;60459;-79
2023/03/30 09:06:29;;;;;;;6.20;2.30;;;;;;;5.95;39.35;100710.70;108107;1253;73988;-81
2023/03/30 09:08:57;;;;;;;4.10;2.10;;;;;;;6.00;39.74;100707.87;108078;1254;73822;-79
2023/03/30 09:11:36;;;;;;;6.90;2.40;;;;;;;6.06;39.90;100706.19;108021;1259;74150;-78
2023/03/30 09:14:06;;;;;;;6.00;2.30;;;;;;;6.15;39.34;100705.85;108066;1254;62112;-79
2023/03/30 09:16:48;;;;;;;6.70;2.10;;;;;;;6.20;38.83;100701.70;108090;1254;60332;-80
2023/03/30 09:19:24;;;;;;;4.60;2.30;;;;;;;6.20;38.59;100693.70;108072;1254;72740;-80
2023/03/30 09:21:53;;;;;;;5.60;2.20;;;;;;;6.20;38.37;100696.67;108067;1254;73198;-80
2023/03/30 09:24:25;;;;;;;4.10;2.10;;;;;;;6.20;38.54;100688.92;107935;1255;73656;-80
2023/03/30 09:27:02;;;;;;;4.40;2.50;;;;;;;6.23;38.73;100688.48;108121;1254;60437;-80
2023/03/30 09:29:32;;;;;;;4.30;2.40;;;;;;;6.33;38.95;100686.17;108092;1255;60380;-80
2023/03/30 09:32:05;;;;;;;4.70;2.20;;;;;;;6.43;38.14;100681.23;108106;1254;74515;-80
2023/03/30 09:34:40;;;;;;;5.80;2.60;;;;;;;6.51;37.41;100671.36;108222;1254;73676;-80
2023/03/30 09:37:10;;;;;;;4.80;2.40;;;;;;;6.50;37.18;100680.06;108146;1254;71717;-80
2023/03/30 09:39:40;;;;;;;4.40;2.60;;;;;;;6.12;37.83;100675.98;108178;1254;60274;-79
2023/03/30 09:42:32;;;;;;;4.50;2.30;;;;;;;6.04;38.26;100667.63;108137;1254;61323;-79
2023/03/30 09:45:16;;;;;;;5.90;2.00;;;;;;;6.08;37.93;100666.64;108141;1256;75098;-79
2023/03/30 09:47:47;;;;;;;4.50;2.30;;;;;;;6.16;37.09;100664.95;108066;1254;74033;-79
2023/03/30 09:50:28;;;;;;;4.00;2.30;;;;;;;6.57;36.81;100661.73;108029;1254;73655;-79
2023/03/30 09:53:02;;;;;;;5.40;2.20;;;;;;;6.72;36.68;100653.30;108017;1254;61221;-78
2023/03/30 09:55:31;;;;;;;4.10;1.90;;;;;;;6.79;36.37;100648.01;108165;1254;61313;-79
2023/03/30 09:58:28;;;;;;;4.60;2.20;;;;;;;6.88;35.99;100645.98;108143;1254;72183;-78
2023/03/30 10:01:12;;;;;;;5.10;2.40;;;;;;;6.99;36.15;100647.34;108073;1256;72222;-77
2023/03/30 10:04:11;;;;;;;5.10;2.00;;;;;;;7.10;35.91;100645.72;108106;1257;72649;-78
2023/03/30 10:06:45;;;;;;;5.00;2.10;;;;;;;7.14;36.02;100644.50;108097;1256;60221;-80
2023/03/30 10:09:14;;;;;;;3.90;2.00;;;;;;;7.16;35.79;100645.23;108130;1257;60383;-80
2023/03/30 10:11:48;;;;;;;5.30;2.00;;;;;;;7.17;35.32;100645.48;108073;1257;73161;-78
2023/03/30 10:14:38;;;;;;;6.60;2.00;;;;;;;7.21;35.78;100640.04;108205;1257;72712;-79
2023/03/30 10:17:17;;;;;;;3.50;2.10;;;;;;;7.23;35.48;100643.31;108171;1257;70881;-77
2023/03/30 10:19:53;;;;;;;6.30;2.00;;;;;;;6.87;36.35;100636.97;108110;1256;60358;-79
2023/03/30 10:22:48;;;;;;;5.20;1.90;;;;;;;6.86;36.01;100634.55;108118;1256;60807;-79
2023/03/30 10:25:18;;;;;;;5.60;2.80;;;;;;;6.90;36.28;100630.39;108116;1257;73569;-79
2023/03/30 10:27:48;;;;;;;9.20;2.50;;;;;;;6.92;36.51;100635.24;107949;1257;72902;-79
2023/03/30 10:30:22;;;;;;;5.20;2.50;;;;;;;6.97;36.69;100633.40;107999;1257;73802;-79
2023/03/30 10:32:52;;;;;;;4.70;2.10;;;;;;;7.02;36.28;100627.28;108006;1257;60312;-79
2023/03/30 10:35:23;;;;;;;4.50;2.20;;;;;;;7.00;36.09;100618.48;108025;1254;60557;-80
2023/03/30 10:37:54;;;;;;;5.10;2.00;;;;;;;6.99;36.61;100622.75;108019;1254;75042;-79
2023/03/30 10:40:31;;;;;;;5.30;2.20;;;;;;;7.07;36.52;100625.42;108056;1254;73739;-78
2023/03/30 10:43:00;;;;;;;4.10;2.10;;;;;;;7.15;36.02;100620.83;108042;1254;73889;-78
2023/03/30 10:45:44;;;;;;;4.60;2.00;;;;;;;7.20;36.14;100616.94;108070;1254;60558;-77
2023/03/30 10:48:36;;;;;;;4.60;2.10;;;;;;;7.25;36.25;100622.06;108190;1254;60357;-80
2023/03/30 10:51:22;;;;;;;6.20;2.40;;;;;;;7.29;35.70;100613.16;108117;1254;72934;-79
2023/03/30 10:54:12;;;;;;;4.60;2.30;;;;;;;7.30;35.59;100605.67;108131;1254;73221;-79
2023/03/30 10:56:53;;;;;;;4.30;2.10;;;;;;;7.38;35.88;100605.48;108134;1254;72224;-79
2023/03/30 10:59:44;;;;;;;5.00;1.80;;;;;;;7.49;35.66;100606.13;108084;1255;60423;-79
2023/03/30 11:02:31;;;;;;;4.40;2.30;;;;;;;7.60;36.31;100602.05;108049;1256;60327;-79
2023/03/30 11:05:21;;;;;;;3.70;1.80;;;;;;;7.70;35.29;100600.42;108045;1259;73138;-78
2023/03/30 11:08:01;;;;;;;5.00;1.90;;;;;;;7.75;34.33;100600.52;108113;1254;72212;-79
2023/03/30 11:10:54;;;;;;;4.10;2.00;;;;;;;7.77;34.34;100596.89;108388;1254;71555;-78
2023/03/30 11:13:36;;;;;;;4.10;2.00;;;;;;;7.77;34.19;100591.58;108153;1254;60334;-81
2023/03/30 11:16:09;;;;;;;3.50;2.20;;;;;;;7.75;33.87;100588.89;108163;1254;60399;-79
2023/03/30 11:18:40;;;;;;;3.70;1.80;;;;;;;7.77;34.22;100585.39;108164;1260;75069;-80
2023/03/30 11:21:28;;;;;;;3.00;1.50;;;;;;;7.81;33.97;100584.36;108165;1254;73066;-79
2023/03/30 11:24:10;;;;;;;4.20;2.10;;;;;;;7.83;33.78;100581.30;108498;1254;71977;-79
2023/03/30 11:27:14;;;;;;;3.20;1.60;;;;;;;7.87;34.46;100579.63;108335;1255;59605;-79
2023/03/30 11:29:47;;;;;;;4.30;1.70;;;;;;;7.97;34.15;100578.32;108189;1256;60287;-78
2023/03/30 11:32:37;;;;;;;2.90;1.30;;;;;;;8.02;33.87;100573.20;108156;1258;73483;-76
2023/03/30 11:35:24;;;;;;;4.60;1.60;;;;;;;8.06;33.08;100571.81;108095;1260;71725;-78
2023/03/30 11:38:20;;;;;;;3.70;1.50;;;;;;;8.08;32.97;100574.26;108135;1256;71708;-76
2023/03/30 11:41:05;;;;;;;3.70;1.30;;;;;;;8.12;32.71;100574.54;108013;1259;60324;-77
2023/03/30 11:43:37;;;;;;;5.60;1.80;;;;;;;8.14;32.57;100573.52;108019;1257;60529;-77
2023/03/30 11:46:17;;;;;;;3.30;1.60;;;;;;;8.15;32.88;100565.48;108115;1257;74034;-75
2023/03/30 11:48:57;;;;;;;4.20;1.40;;;;;;;8.27;33.33;100568.95;108266;1254;73568;-79
2023/03/30 11:51:28;;;;;;;4.40;1.90;;;;;;;8.67;32.42;100564.23;108255;1254;72908;-78
2023/03/30 11:54:18;;;;;;;3.60;1.50;;;;;;;8.76;32.30;100557.89;108218;1254;60554;-77
2023/03/30 11:56:56;;;;;;;4.30;1.50;;;;;;;8.80;32.52;100563.60;108147;1255;60535;-77
2023/03/30 11:59:36;;;;;;;3.90;1.70;;;;;;;8.83;32.04;100558.70;108134;1257;74466;-79
2023/03/30 12:02:35;;;;;;;5.00;1.70;;;;;;;8.86;32.23;100557.02;108025;1257;73700;-78
2023/03/30 12:05:10;;;;;;;3.80;1.70;;;;;;;8.88;31.85;100548.13;108113;1257;72693;-78
2023/03/30 12:07:53;;;;;;;3.80;1.60;;;;;;;8.93;32.25;100544.70;108124;1255;60476;-78
2023/03/30 12:10:27;;;;;;;3.50;1.60;;;;;;;8.99;32.20;100547.46;108154;1257;60329;-78
2023/03/30 12:12:56;;;;;;;4.60;1.70;;;;;;;9.02;32.03;100549.52;108000;1254;75047;-78
2023/03/30 12:15:39;;;;;;;3.30;1.60;;;;;;;9.00;32.24;100550.83;108046;1254;73328;-78
2023/03/30 12:18:27;;;;;;;3.30;1.50;;;;;;;9.00;32.12;100546.55;108147;1256;72115;-78